sensor_id;sensor_type;location;lat;lon;timestamp;pressure;altitude;pressure_sealevel;temperature;humidity
75414;BME280;64758;52.122;5.404;2023-02-01T00:00:58;102187.75;;;4.97;87.38
75414;BME280;64758;52.122;5.404;2023-02-01T00:03:24;102182.97;;;5.01;87.31
75414;BME280;64758;52.122;5.404;2023-02-01T00:05:59;102182.41;;;5.09;87.25
75414;BME280;64758;52.122;5.404;2023-02-01T00:08:26;102173.75;;;5.18;86.38
75414;BME280;64758;52.122;5.404;2023-02-01T00:11:03;102182.03;;;5.24;86.17
75414;BME280;64758;52.122;5.404;2023-02-01T00:13:31;102171.25;;;5.16;86.85
75414;BME280;64758;52.122;5.404;2023-02-01T00:16:03;102181.19;;;5.24;86.85
75414;BME280;64758;52.122;5.404;2023-02-01T00:18:30;102192.22;;;5.29;86.29
75414;BME280;64758;52.122;5.404;2023-02-01T00:20:56;102176.53;;;5.27;86.35
75414;BME280;64758;52.122;5.404;2023-02-01T00:23:23;102169.13;;;5.32;86.20
75414;BME280;64758;52.122;5.404;2023-02-01T00:25:49;102178.06;;;5.41;86.29
75414;BME280;64758;52.122;5.404;2023-02-01T00:28:16;102155.31;;;5.40;86.60
75414;BME280;64758;52.122;5.404;2023-02-01T00:30:43;102160.25;;;5.44;86.25
75414;BME280;64758;52.122;5.404;2023-02-01T00:33:09;102173.91;;;5.49;86.15
75414;BME280;64758;52.122;5.404;2023-02-01T00:35:36;102162.16;;;5.53;85.87
75414;BME280;64758;52.122;5.404;2023-02-01T00:38:02;102153.88;;;5.58;86.02
75414;BME280;64758;52.122;5.404;2023-02-01T00:40:29;102158.06;;;5.60;86.12
75414;BME280;64758;52.122;5.404;2023-02-01T00:42:55;102172.06;;;5.61;85.84
75414;BME280;64758;52.122;5.404;2023-02-01T00:45:24;102162.72;;;5.57;85.54
75414;BME280;64758;52.122;5.404;2023-02-01T00:47:50;102175.56;;;5.61;85.79
75414;BME280;64758;52.122;5.404;2023-02-01T00:50:17;102170.88;;;5.65;85.41
75414;BME280;64758;52.122;5.404;2023-02-01T00:52:43;102174.94;;;5.69;85.43
75414;BME280;64758;52.122;5.404;2023-02-01T00:55:10;102168.59;;;5.71;85.28
75414;BME280;64758;52.122;5.404;2023-02-01T00:57:36;102169.44;;;5.72;85.09
75414;BME280;64758;52.122;5.404;2023-02-01T01:00:03;102173.97;;;5.70;85.15
75414;BME280;64758;52.122;5.404;2023-02-01T01:02:29;102182.75;;;5.70;85.60
75414;BME280;64758;52.122;5.404;2023-02-01T01:04:56;102169.31;;;5.73;85.31
75414;BME280;64758;52.122;5.404;2023-02-01T01:07:22;102168.84;;;5.68;85.58
75414;BME280;64758;52.122;5.404;2023-02-01T01:09:49;102159.59;;;5.74;84.97
75414;BME280;64758;52.122;5.404;2023-02-01T01:12:15;102159.28;;;5.78;85.19
75414;BME280;64758;52.122;5.404;2023-02-01T01:14:42;102163.09;;;5.85;84.89
75414;BME280;64758;52.122;5.404;2023-02-01T01:17:08;102149.28;;;5.93;84.29
75414;BME280;64758;52.122;5.404;2023-02-01T01:19:35;102148.28;;;6.05;82.92
75414;BME280;64758;52.122;5.404;2023-02-01T01:22:02;102147.22;;;6.07;82.85
75414;BME280;64758;52.122;5.404;2023-02-01T01:24:28;102146.25;;;6.08;82.89
75414;BME280;64758;52.122;5.404;2023-02-01T01:26:55;102145.34;;;6.19;81.57
75414;BME280;64758;52.122;5.404;2023-02-01T01:29:22;102156.28;;;6.14;81.87
75414;BME280;64758;52.122;5.404;2023-02-01T01:31:48;102140.22;;;6.17;81.90
75414;BME280;64758;52.122;5.404;2023-02-01T01:34:15;102147.41;;;6.15;82.02
75414;BME280;64758;52.122;5.404;2023-02-01T01:36:41;102142.16;;;6.15;81.77
75414;BME280;64758;52.122;5.404;2023-02-01T01:39:08;102147.03;;;6.20;81.43
75414;BME280;64758;52.122;5.404;2023-02-01T01:41:34;102150.78;;;6.17;81.72
75414;BME280;64758;52.122;5.404;2023-02-01T01:44:03;102139.50;;;6.15;81.37
75414;BME280;64758;52.122;5.404;2023-02-01T01:46:33;102139.97;;;6.20;80.64
75414;BME280;64758;52.122;5.404;2023-02-01T01:49:17;102138.03;;;6.22;81.16
75414;BME280;64758;52.122;5.404;2023-02-01T01:51:56;102146.53;;;6.26;81.05
75414;BME280;64758;52.122;5.404;2023-02-01T01:54:40;102131.28;;;6.29;81.18
75414;BME280;64758;52.122;5.404;2023-02-01T01:57:17;102130.91;;;6.33;80.47
75414;BME280;64758;52.122;5.404;2023-02-01T02:00:11;102126.59;;;6.32;80.33
75414;BME280;64758;52.122;5.404;2023-02-01T02:02:37;102121.91;;;6.36;80.70
75414;BME280;64758;52.122;5.404;2023-02-01T02:05:05;102111.34;;;6.36;80.63
75414;BME280;64758;52.122;5.404;2023-02-01T02:07:35;102114.56;;;6.39;80.98
75414;BME280;64758;52.122;5.404;2023-02-01T02:10:05;102123.03;;;6.43;80.85
75414;BME280;64758;52.122;5.404;2023-02-01T02:12:32;102111.50;;;6.44;81.01
75414;BME280;64758;52.122;5.404;2023-02-01T02:14:59;102118.00;;;6.40;81.39
75414;BME280;64758;52.122;5.404;2023-02-01T02:17:37;102125.31;;;6.47;80.88
75414;BME280;64758;52.122;5.404;2023-02-01T02:25:59;102109.53;;;6.57;81.73
75414;BME280;64758;52.122;5.404;2023-02-01T02:28:42;102111.91;;;6.60;81.70
75414;BME280;64758;52.122;5.404;2023-02-01T02:31:30;102103.28;;;6.58;81.97
75414;BME280;64758;52.122;5.404;2023-02-01T02:39:44;102104.44;;;6.65;81.46
75414;BME280;64758;52.122;5.404;2023-02-01T02:45:45;102088.22;;;6.69;81.68
75414;BME280;64758;52.122;5.404;2023-02-01T02:48:43;102093.50;;;6.69;82.14
75414;BME280;64758;52.122;5.404;2023-02-01T02:51:14;102096.84;;;6.71;81.58
75414;BME280;64758;52.122;5.404;2023-02-01T02:56:51;102086.84;;;6.75;81.13
75414;BME280;64758;52.122;5.404;2023-02-01T02:59:39;102081.56;;;6.75;82.36
75414;BME280;64758;52.122;5.404;2023-02-01T03:02:27;102065.28;;;6.70;81.93
75414;BME280;64758;52.122;5.404;2023-02-01T03:05:12;102044.88;;;6.72;81.43
75414;BME280;64758;52.122;5.404;2023-02-01T03:19:03;102061.03;;;6.58;81.73
75414;BME280;64758;52.122;5.404;2023-02-01T03:24:22;102074.66;;;6.53;81.57
75414;BME280;64758;52.122;5.404;2023-02-01T03:27:22;102066.03;;;6.51;80.89
75414;BME280;64758;52.122;5.404;2023-02-01T03:32:24;102040.00;;;6.47;81.47
75414;BME280;64758;52.122;5.404;2023-02-01T03:34:51;102048.06;;;6.45;81.25
75414;BME280;64758;52.122;5.404;2023-02-01T03:37:26;102056.44;;;6.50;81.41
75414;BME280;64758;52.122;5.404;2023-02-01T03:40:00;102054.84;;;6.38;81.93
75414;BME280;64758;52.122;5.404;2023-02-01T03:42:54;102074.28;;;6.37;81.81
75414;BME280;64758;52.122;5.404;2023-02-01T03:45:33;102064.13;;;6.33;82.07
75414;BME280;64758;52.122;5.404;2023-02-01T03:48:03;102074.94;;;6.30;82.58
75414;BME280;64758;52.122;5.404;2023-02-01T03:50:33;102049.38;;;6.30;82.39
75414;BME280;64758;52.122;5.404;2023-02-01T03:53:10;102081.72;;;6.32;82.36
75414;BME280;64758;52.122;5.404;2023-02-01T03:55:38;102082.59;;;6.33;82.53
75414;BME280;64758;52.122;5.404;2023-02-01T03:58:16;102067.56;;;6.33;83.07
75414;BME280;64758;52.122;5.404;2023-02-01T04:00:46;102071.56;;;6.28;82.91
75414;BME280;64758;52.122;5.404;2023-02-01T04:03:16;102070.66;;;6.38;82.91
75414;BME280;64758;52.122;5.404;2023-02-01T04:05:42;102065.84;;;6.43;82.42
75414;BME280;64758;52.122;5.404;2023-02-01T04:08:09;102075.16;;;6.47;82.27
75414;BME280;64758;52.122;5.404;2023-02-01T04:10:35;102068.78;;;6.50;82.80
75414;BME280;64758;52.122;5.404;2023-02-01T04:13:02;102060.75;;;6.51;83.05
75414;BME280;64758;52.122;5.404;2023-02-01T04:15:28;102059.63;;;6.54;82.80
75414;BME280;64758;52.122;5.404;2023-02-01T04:17:55;102054.78;;;6.59;82.22
75414;BME280;64758;52.122;5.404;2023-02-01T04:20:21;102066.22;;;6.59;82.22
75414;BME280;64758;52.122;5.404;2023-02-01T04:22:48;102069.81;;;6.58;82.18
75414;BME280;64758;52.122;5.404;2023-02-01T04:25:15;102071.22;;;6.62;82.13
75414;BME280;64758;52.122;5.404;2023-02-01T04:27:44;102077.78;;;6.68;81.60
75414;BME280;64758;52.122;5.404;2023-02-01T04:30:11;102077.06;;;6.66;81.34
75414;BME280;64758;52.122;5.404;2023-02-01T04:32:38;102086.53;;;6.68;81.86
75414;BME280;64758;52.122;5.404;2023-02-01T04:35:06;102083.91;;;6.68;81.80
75414;BME280;64758;52.122;5.404;2023-02-01T04:37:33;102067.22;;;6.68;81.33
75414;BME280;64758;52.122;5.404;2023-02-01T04:40:00;102073.19;;;6.70;80.79
75414;BME280;64758;52.122;5.404;2023-02-01T04:42:27;102040.00;;;6.67;80.81
75414;BME280;64758;52.122;5.404;2023-02-01T04:44:53;102047.31;;;6.64;81.18
75414;BME280;64758;52.122;5.404;2023-02-01T04:47:19;102068.69;;;6.61;81.08
75414;BME280;64758;52.122;5.404;2023-02-01T04:49:46;102079.84;;;6.64;80.91
75414;BME280;64758;52.122;5.404;2023-02-01T04:52:13;102060.22;;;6.57;81.10
75414;BME280;64758;52.122;5.404;2023-02-01T04:54:39;102070.72;;;6.48;81.54
75414;BME280;64758;52.122;5.404;2023-02-01T04:57:05;102057.78;;;6.45;82.33
75414;BME280;64758;52.122;5.404;2023-02-01T04:59:32;102052.03;;;6.40;82.33
75414;BME280;64758;52.122;5.404;2023-02-01T05:01:58;102061.78;;;6.39;82.63
75414;BME280;64758;52.122;5.404;2023-02-01T05:04:25;102054.13;;;6.36;83.01
75414;BME280;64758;52.122;5.404;2023-02-01T05:06:52;102053.31;;;6.36;82.61
75414;BME280;64758;52.122;5.404;2023-02-01T05:09:18;102051.34;;;6.38;82.84
75414;BME280;64758;52.122;5.404;2023-02-01T05:11:44;102055.03;;;6.46;82.81
75414;BME280;64758;52.122;5.404;2023-02-01T05:14:30;102049.84;;;6.45;82.83
75414;BME280;64758;52.122;5.404;2023-02-01T05:16:56;102047.63;;;6.40;82.87
75414;BME280;64758;52.122;5.404;2023-02-01T05:19:23;102048.03;;;6.36;83.17
75414;BME280;64758;52.122;5.404;2023-02-01T05:21:49;102049.00;;;6.35;83.22
75414;BME280;64758;52.122;5.404;2023-02-01T05:24:15;102058.59;;;6.36;83.10
75414;BME280;64758;52.122;5.404;2023-02-01T05:26:49;102054.13;;;6.36;83.31
75414;BME280;64758;52.122;5.404;2023-02-01T05:29:16;102056.06;;;6.34;83.77
75414;BME280;64758;52.122;5.404;2023-02-01T05:31:47;102066.22;;;6.39;83.80
75414;BME280;64758;52.122;5.404;2023-02-01T05:34:14;102065.25;;;6.40;83.08
75414;BME280;64758;52.122;5.404;2023-02-01T05:36:41;102060.16;;;6.48;83.06
75414;BME280;64758;52.122;5.404;2023-02-01T05:39:08;102047.09;;;6.46;82.92
75414;BME280;64758;52.122;5.404;2023-02-01T05:41:35;102062.34;;;6.43;82.82
75414;BME280;64758;52.122;5.404;2023-02-01T05:44:02;102071.13;;;6.43;83.00
75414;BME280;64758;52.122;5.404;2023-02-01T05:46:29;102071.22;;;6.42;83.58
75414;BME280;64758;52.122;5.404;2023-02-01T05:48:56;102059.84;;;6.41;83.78
75414;BME280;64758;52.122;5.404;2023-02-01T05:51:22;102062.09;;;6.46;82.82
75414;BME280;64758;52.122;5.404;2023-02-01T05:53:48;102056.44;;;6.50;82.72
75414;BME280;64758;52.122;5.404;2023-02-01T05:56:15;102068.50;;;6.53;83.06
75414;BME280;64758;52.122;5.404;2023-02-01T05:58:41;102073.78;;;6.53;82.89
75414;BME280;64758;52.122;5.404;2023-02-01T06:01:08;102061.72;;;6.50;83.50
75414;BME280;64758;52.122;5.404;2023-02-01T06:03:34;102071.88;;;6.55;83.32
75414;BME280;64758;52.122;5.404;2023-02-01T06:06:01;102064.78;;;6.55;83.46
75414;BME280;64758;52.122;5.404;2023-02-01T06:08:28;102069.22;;;6.55;83.59
75414;BME280;64758;52.122;5.404;2023-02-01T06:11:02;102069.47;;;6.52;84.13
75414;BME280;64758;52.122;5.404;2023-02-01T06:13:30;102077.28;;;6.53;83.76
75414;BME280;64758;52.122;5.404;2023-02-01T06:15:59;102074.25;;;6.58;83.59
75414;BME280;64758;52.122;5.404;2023-02-01T06:18:26;102071.88;;;6.55;83.78
75414;BME280;64758;52.122;5.404;2023-02-01T06:20:57;102063.38;;;6.51;83.75
75414;BME280;64758;52.122;5.404;2023-02-01T06:23:23;102064.78;;;6.55;83.57
75414;BME280;64758;52.122;5.404;2023-02-01T06:25:59;102065.06;;;6.52;83.86
75414;BME280;64758;52.122;5.404;2023-02-01T06:28:27;102064.59;;;6.47;84.39
75414;BME280;64758;52.122;5.404;2023-02-01T06:30:54;102069.56;;;6.41;84.65
75414;BME280;64758;52.122;5.404;2023-02-01T06:33:21;102075.38;;;6.35;84.75
75414;BME280;64758;52.122;5.404;2023-02-01T06:35:48;102079.94;;;6.33;85.03
75414;BME280;64758;52.122;5.404;2023-02-01T06:38:14;102073.25;;;6.29;85.10
75414;BME280;64758;52.122;5.404;2023-02-01T06:40:41;102090.03;;;6.28;85.43
75414;BME280;64758;52.122;5.404;2023-02-01T06:43:08;102082.25;;;6.27;85.58
75414;BME280;64758;52.122;5.404;2023-02-01T06:45:35;102089.84;;;6.20;85.72
75414;BME280;64758;52.122;5.404;2023-02-01T06:48:01;102091.63;;;6.20;85.95
75414;BME280;64758;52.122;5.404;2023-02-01T06:50:28;102098.59;;;6.21;85.43
75414;BME280;64758;52.122;5.404;2023-02-01T06:52:55;102087.72;;;6.14;85.86
75414;BME280;64758;52.122;5.404;2023-02-01T06:55:21;102099.53;;;6.20;85.89
75414;BME280;64758;52.122;5.404;2023-02-01T06:57:53;102085.78;;;6.16;85.71
75414;BME280;64758;52.122;5.404;2023-02-01T07:00:19;102085.66;;;6.18;85.81
75414;BME280;64758;52.122;5.404;2023-02-01T07:02:47;102103.75;;;6.22;85.52
75414;BME280;64758;52.122;5.404;2023-02-01T07:05:13;102099.03;;;6.26;85.82
75414;BME280;64758;52.122;5.404;2023-02-01T07:07:40;102085.13;;;6.24;85.79
75414;BME280;64758;52.122;5.404;2023-02-01T07:10:07;102092.09;;;6.25;85.71
75414;BME280;64758;52.122;5.404;2023-02-01T07:12:33;102078.38;;;6.30;85.67
75414;BME280;64758;52.122;5.404;2023-02-01T07:15:00;102088.56;;;6.35;85.43
75414;BME280;64758;52.122;5.404;2023-02-01T07:17:28;102090.34;;;6.34;85.38
75414;BME280;64758;52.122;5.404;2023-02-01T07:19:58;102081.63;;;6.34;85.86
75414;BME280;64758;52.122;5.404;2023-02-01T07:22:27;102079.94;;;6.33;85.60
75414;BME280;64758;52.122;5.404;2023-02-01T07:24:54;102078.13;;;6.33;85.39
75414;BME280;64758;52.122;5.404;2023-02-01T07:27:21;102081.88;;;6.31;85.56
75414;BME280;64758;52.122;5.404;2023-02-01T07:29:47;102085.47;;;6.30;85.62
75414;BME280;64758;52.122;5.404;2023-02-01T07:32:13;102074.66;;;6.33;85.60
75414;BME280;64758;52.122;5.404;2023-02-01T07:34:44;102087.88;;;6.33;85.42
75414;BME280;64758;52.122;5.404;2023-02-01T07:37:11;102088.81;;;6.32;85.25
75414;BME280;64758;52.122;5.404;2023-02-01T07:39:37;102091.56;;;6.30;85.50
75414;BME280;64758;52.122;5.404;2023-02-01T07:42:05;102086.31;;;6.30;85.14
75414;BME280;64758;52.122;5.404;2023-02-01T07:44:31;102086.75;;;6.35;85.06
75414;BME280;64758;52.122;5.404;2023-02-01T07:46:58;102083.16;;;6.36;84.95
75414;BME280;64758;52.122;5.404;2023-02-01T07:49:24;102080.66;;;6.35;84.89
75414;BME280;64758;52.122;5.404;2023-02-01T07:51:51;102085.22;;;6.33;85.03
75414;BME280;64758;52.122;5.404;2023-02-01T07:54:18;102082.19;;;6.37;84.56
75414;BME280;64758;52.122;5.404;2023-02-01T07:56:44;102091.63;;;6.40;84.79
75414;BME280;64758;52.122;5.404;2023-02-01T07:59:11;102087.06;;;6.42;84.60
75414;BME280;64758;52.122;5.404;2023-02-01T08:01:38;102091.38;;;6.43;84.69
75414;BME280;64758;52.122;5.404;2023-02-01T08:04:04;102090.56;;;6.42;84.57
75414;BME280;64758;52.122;5.404;2023-02-01T08:06:33;102090.66;;;6.41;85.05
75414;BME280;64758;52.122;5.404;2023-02-01T08:09:01;102102.88;;;6.42;84.91
75414;BME280;64758;52.122;5.404;2023-02-01T08:11:28;102098.00;;;6.37;85.03
75414;BME280;64758;52.122;5.404;2023-02-01T08:13:56;102112.75;;;6.40;84.67
75414;BME280;64758;52.122;5.404;2023-02-01T08:16:23;102114.56;;;6.39;84.79
75414;BME280;64758;52.122;5.404;2023-02-01T08:18:50;102101.88;;;6.33;85.18
75414;BME280;64758;52.122;5.404;2023-02-01T08:21:25;102103.84;;;6.41;85.40
75414;BME280;64758;52.122;5.404;2023-02-01T08:23:53;102105.78;;;6.39;85.58
75414;BME280;64758;52.122;5.404;2023-02-01T08:26:24;102094.00;;;6.43;85.42
75414;BME280;64758;52.122;5.404;2023-02-01T08:28:54;102092.78;;;6.47;85.17
75414;BME280;64758;52.122;5.404;2023-02-01T08:31:22;102087.84;;;6.53;84.92
75414;BME280;64758;52.122;5.404;2023-02-01T08:33:52;102073.94;;;6.51;85.08
75414;BME280;64758;52.122;5.404;2023-02-01T08:36:22;102074.66;;;6.53;84.91
75414;BME280;64758;52.122;5.404;2023-02-01T08:38:48;102084.09;;;6.56;84.57
75414;BME280;64758;52.122;5.404;2023-02-01T08:41:18;102084.09;;;6.56;84.81
75414;BME280;64758;52.122;5.404;2023-02-01T08:43:45;102070.19;;;6.54;84.71
75414;BME280;64758;52.122;5.404;2023-02-01T08:46:12;102082.41;;;6.55;84.79
75414;BME280;64758;52.122;5.404;2023-02-01T08:48:39;102076.78;;;6.59;84.87
75414;BME280;64758;52.122;5.404;2023-02-01T08:51:08;102092.91;;;6.66;84.51
75414;BME280;64758;52.122;5.404;2023-02-01T08:53:36;102077.25;;;6.74;84.18
75414;BME280;64758;52.122;5.404;2023-02-01T08:56:03;102092.31;;;6.83;84.09
75414;BME280;64758;52.122;5.404;2023-02-01T08:58:30;102084.13;;;6.86;84.47
75414;BME280;64758;52.122;5.404;2023-02-01T09:00:56;102078.72;;;6.87;83.45
75414;BME280;64758;52.122;5.404;2023-02-01T09:03:23;102070.28;;;6.93;84.43
75414;BME280;64758;52.122;5.404;2023-02-01T09:05:50;102074.31;;;6.97;83.61
75414;BME280;64758;52.122;5.404;2023-02-01T09:08:19;102059.56;;;6.95;83.28
75414;BME280;64758;52.122;5.404;2023-02-01T09:10:46;102061.81;;;6.99;83.45
75414;BME280;64758;52.122;5.404;2023-02-01T09:13:13;102049.34;;;7.11;83.30
75414;BME280;64758;52.122;5.404;2023-02-01T09:15:39;102057.72;;;7.25;82.53
75414;BME280;64758;52.122;5.404;2023-02-01T09:18:06;102057.19;;;7.41;81.70
75414;BME280;64758;52.122;5.404;2023-02-01T09:20:32;102064.47;;;7.57;81.54
75414;BME280;64758;52.122;5.404;2023-02-01T09:22:59;102055.13;;;7.53;80.50
75414;BME280;64758;52.122;5.404;2023-02-01T09:25:26;102057.13;;;7.61;80.45
75414;BME280;64758;52.122;5.404;2023-02-01T09:27:53;102056.53;;;7.67;80.13
75414;BME280;64758;52.122;5.404;2023-02-01T09:30:19;102061.44;;;7.71;79.94
75414;BME280;64758;52.122;5.404;2023-02-01T09:32:46;102064.19;;;7.70;79.74
75414;BME280;64758;52.122;5.404;2023-02-01T09:35:12;102071.03;;;7.63;79.23
75414;BME280;64758;52.122;5.404;2023-02-01T09:37:39;102077.28;;;7.62;80.26
75414;BME280;64758;52.122;5.404;2023-02-01T09:40:06;102074.06;;;7.58;80.25
75414;BME280;64758;52.122;5.404;2023-02-01T09:48:28;102061.41;;;7.53;80.34
75414;BME280;64758;52.122;5.404;2023-02-01T09:50:58;102059.72;;;7.52;80.08
75414;BME280;64758;52.122;5.404;2023-02-01T09:53:37;102058.91;;;7.51;79.68
75414;BME280;64758;52.122;5.404;2023-02-01T09:56:27;102066.84;;;7.51;80.28
75414;BME280;64758;52.122;5.404;2023-02-01T09:59:29;102067.94;;;7.49;80.43
75414;BME280;64758;52.122;5.404;2023-02-01T10:01:57;102046.34;;;7.44;80.55
75414;BME280;64758;52.122;5.404;2023-02-01T10:04:26;102063.19;;;7.43;80.43
75414;BME280;64758;52.122;5.404;2023-02-01T10:12:41;102052.63;;;7.43;81.26
75414;BME280;64758;52.122;5.404;2023-02-01T10:26:10;102065.44;;;7.08;87.20
75414;BME280;64758;52.122;5.404;2023-02-01T10:28:39;102073.28;;;6.89;89.97
75414;BME280;64758;52.122;5.404;2023-02-01T10:31:08;102070.22;;;6.84;90.90
75414;BME280;64758;52.122;5.404;2023-02-01T10:36:16;102077.25;;;6.74;91.08
75414;BME280;64758;52.122;5.404;2023-02-01T10:38:45;102058.50;;;6.77;91.10
75414;BME280;64758;52.122;5.404;2023-02-01T10:41:20;102056.72;;;6.77;90.51
75414;BME280;64758;52.122;5.404;2023-02-01T10:43:54;102073.81;;;6.83;90.26
75414;BME280;64758;52.122;5.404;2023-02-01T10:46:23;102046.88;;;6.89;89.55
75414;BME280;64758;52.122;5.404;2023-02-01T10:48:50;102057.06;;;6.93;87.68
75414;BME280;64758;52.122;5.404;2023-02-01T10:51:24;102056.13;;;7.04;87.97
75414;BME280;64758;52.122;5.404;2023-02-01T10:54:14;102038.31;;;7.06;86.42
75414;BME280;64758;52.122;5.404;2023-02-01T10:56:44;102041.41;;;7.11;85.88
75414;BME280;64758;52.122;5.404;2023-02-01T10:59:17;102034.19;;;7.13;85.80
75414;BME280;64758;52.122;5.404;2023-02-01T11:01:46;102032.97;;;7.26;84.25
75414;BME280;64758;52.122;5.404;2023-02-01T11:04:19;102038.28;;;7.36;84.78
75414;BME280;64758;52.122;5.404;2023-02-01T11:06:50;102036.22;;;7.39;82.54
75414;BME280;64758;52.122;5.404;2023-02-01T11:09:20;102034.41;;;7.49;83.77
75414;BME280;64758;52.122;5.404;2023-02-01T11:14:17;102022.88;;;7.50;82.58
75414;BME280;64758;52.122;5.404;2023-02-01T11:16:49;102044.56;;;7.53;82.56
75414;BME280;64758;52.122;5.404;2023-02-01T11:19:17;102028.97;;;7.51;83.62
75414;BME280;64758;52.122;5.404;2023-02-01T11:21:44;102024.25;;;7.45;83.88
75414;BME280;64758;52.122;5.404;2023-02-01T11:24:25;102028.69;;;7.44;84.21
75414;BME280;64758;52.122;5.404;2023-02-01T11:26:56;102021.47;;;7.46;83.97
75414;BME280;64758;52.122;5.404;2023-02-01T11:29:24;102022.44;;;7.54;83.05
75414;BME280;64758;52.122;5.404;2023-02-01T11:31:59;102038.47;;;7.53;82.53
75414;BME280;64758;52.122;5.404;2023-02-01T11:34:33;102029.28;;;7.57;83.66
75414;BME280;64758;52.122;5.404;2023-02-01T11:37:03;102034.28;;;7.60;82.89
75414;BME280;64758;52.122;5.404;2023-02-01T11:39:32;102030.78;;;7.59;83.08
75414;BME280;64758;52.122;5.404;2023-02-01T11:42:14;102026.91;;;7.63;82.49
75414;BME280;64758;52.122;5.404;2023-02-01T11:44:43;102032.63;;;7.68;83.41
75414;BME280;64758;52.122;5.404;2023-02-01T11:47:26;102021.47;;;7.84;82.58
75414;BME280;64758;52.122;5.404;2023-02-01T11:49:55;102014.25;;;7.95;82.05
75414;BME280;64758;52.122;5.404;2023-02-01T11:52:55;102012.81;;;8.01;82.13
75414;BME280;64758;52.122;5.404;2023-02-01T12:00:59;102000.56;;;8.00;80.94
75414;BME280;64758;52.122;5.404;2023-02-01T12:09:20;102002.41;;;8.18;80.57
75414;BME280;64758;52.122;5.404;2023-02-01T12:24:15;101996.38;;;8.26;79.56
75414;BME280;64758;52.122;5.404;2023-02-01T12:26:50;101990.84;;;8.19;79.17
75414;BME280;64758;52.122;5.404;2023-02-01T12:43:09;102025.50;;;8.07;79.75
75414;BME280;64758;52.122;5.404;2023-02-01T12:45:59;102003.38;;;7.98;79.54
75414;BME280;64758;52.122;5.404;2023-02-01T12:48:42;102012.28;;;7.97;80.44
75414;BME280;64758;52.122;5.404;2023-02-01T12:51:19;102012.28;;;7.97;79.95
75414;BME280;64758;52.122;5.404;2023-02-01T12:56:46;101995.00;;;8.03;80.19
75414;BME280;64758;52.122;5.404;2023-02-01T12:59:25;101984.28;;;8.04;80.77
75414;BME280;64758;52.122;5.404;2023-02-01T13:01:56;101994.59;;;8.07;80.51
75414;BME280;64758;52.122;5.404;2023-02-01T13:04:27;102005.72;;;8.11;80.81
75414;BME280;64758;52.122;5.404;2023-02-01T13:07:13;102008.06;;;8.14;80.66
75414;BME280;64758;52.122;5.404;2023-02-01T13:09:52;102010.88;;;8.12;79.99
75414;BME280;64758;52.122;5.404;2023-02-01T13:12:37;102007.66;;;8.09;80.85
75414;BME280;64758;52.122;5.404;2023-02-01T13:15:26;101988.59;;;8.05;81.16
75414;BME280;64758;52.122;5.404;2023-02-01T13:17:59;101987.91;;;8.03;80.85
75414;BME280;64758;52.122;5.404;2023-02-01T13:20:55;101992.50;;;8.01;80.49
75414;BME280;64758;52.122;5.404;2023-02-01T13:23:28;102011.16;;;8.00;80.51
75414;BME280;64758;52.122;5.404;2023-02-01T13:25:55;102007.81;;;7.98;81.14
75414;BME280;64758;52.122;5.404;2023-02-01T13:28:36;101994.59;;;7.98;80.79
75414;BME280;64758;52.122;5.404;2023-02-01T13:43:06;102026.19;;;8.09;81.21
75414;BME280;64758;52.122;5.404;2023-02-01T13:45:36;102021.06;;;8.07;80.87
75414;BME280;64758;52.122;5.404;2023-02-01T13:48:35;102010.88;;;8.12;80.89
75414;BME280;64758;52.122;5.404;2023-02-01T13:51:05;101998.19;;;8.16;80.87
75414;BME280;64758;52.122;5.404;2023-02-01T13:53:37;102005.19;;;8.17;80.66
75414;BME280;64758;52.122;5.404;2023-02-01T13:56:13;102018.69;;;8.23;80.26
75414;BME280;64758;52.122;5.404;2023-02-01T13:58:43;101995.00;;;8.22;79.62
75414;BME280;64758;52.122;5.404;2023-02-01T14:04:03;102015.47;;;8.29;79.47
75414;BME280;64758;52.122;5.404;2023-02-01T14:09:15;102007.09;;;8.34;79.48
75414;BME280;64758;52.122;5.404;2023-02-01T14:11:55;102012.38;;;8.34;79.52
75414;BME280;64758;52.122;5.404;2023-02-01T14:19:31;101998.06;;;8.27;80.82
75414;BME280;64758;52.122;5.404;2023-02-01T14:24:50;102014.22;;;8.24;81.46
75414;BME280;64758;52.122;5.404;2023-02-01T14:27:28;101998.63;;;8.21;81.59
75414;BME280;64758;52.122;5.404;2023-02-01T14:30:00;102006.72;;;8.19;81.87
75414;BME280;64758;52.122;5.404;2023-02-01T14:32:38;102003.47;;;8.16;82.16
75414;BME280;64758;52.122;5.404;2023-02-01T14:35:27;102009.50;;;8.18;82.25
75414;BME280;64758;52.122;5.404;2023-02-01T14:37:59;102000.72;;;8.17;82.26
75414;BME280;64758;52.122;5.404;2023-02-01T14:40:29;102004.72;;;8.12;82.32
75414;BME280;64758;52.122;5.404;2023-02-01T14:42:56;102001.69;;;8.16;82.56
75414;BME280;64758;52.122;5.404;2023-02-01T14:58:45;102012.53;;;8.04;86.21
75414;BME280;64758;52.122;5.404;2023-02-01T15:01:33;102010.03;;;7.93;85.79
75414;BME280;64758;52.122;5.404;2023-02-01T15:04:10;102002.25;;;7.91;86.39
75414;BME280;64758;52.122;5.404;2023-02-01T15:06:43;102008.94;;;7.86;86.31
75414;BME280;64758;52.122;5.404;2023-02-01T15:09:26;102007.56;;;7.91;86.09
75414;BME280;64758;52.122;5.404;2023-02-01T15:14:40;102020.78;;;7.91;86.83
75414;BME280;64758;52.122;5.404;2023-02-01T15:19:58;102015.63;;;7.99;85.89
75414;BME280;64758;52.122;5.404;2023-02-01T15:22:27;102033.72;;;8.04;85.28
75414;BME280;64758;52.122;5.404;2023-02-01T15:24:57;102027.31;;;8.06;85.09
75414;BME280;64758;52.122;5.404;2023-02-01T15:27:25;102019.66;;;8.03;85.80
75414;BME280;64758;52.122;5.404;2023-02-01T15:29:51;102035.66;;;8.02;85.34
75414;BME280;64758;52.122;5.404;2023-02-01T15:32:33;102023.97;;;8.04;85.20
75414;BME280;64758;52.122;5.404;2023-02-01T15:35:00;102036.47;;;8.12;85.67
75414;BME280;64758;52.122;5.404;2023-02-01T15:37:28;102046.94;;;8.13;85.34
75414;BME280;64758;52.122;5.404;2023-02-01T15:45:22;102047.91;;;8.12;84.02
75414;BME280;64758;52.122;5.404;2023-02-01T15:47:53;102059.66;;;8.19;84.22
75414;BME280;64758;52.122;5.404;2023-02-01T15:50:22;102044.75;;;8.18;83.86